Time;durP1;ratioP1;P1;durP2;ratioP2;P2;SDS_P1;SDS_P2;PMS_P1;PMS_P2;Temp;Humidity;BMP_temperature;BMP_pressure;BME280_temperature;BME280_humidity;BME280_pressure;Samples;Min_cycle;Max_cycle;Signal;HPM_P1;HPM_P2
2023/09/08 00:01:36;;;;;;;59.47;56.38;;;;;;;;;;5053484;28;20060;-67
2023/09/08 00:04:01;;;;;;;64.07;60.75;;;;;;;;;;5039964;28;20344;-62
2023/09/08 00:06:26;;;;;;;76.72;72.70;;;;;;;;;;5036562;28;20037;-62
2023/09/08 00:08:52;;;;;;;88.22;83.75;;;;;;;;;;5027801;28;20159;-61
2023/09/08 00:11:17;;;;;;;90.00;85.38;;;;;;;;;;5028136;28;20044;-61
2023/09/08 00:13:42;;;;;;;92.88;87.97;;;;;;;;;;5040989;28;20202;-62
2023/09/08 00:16:09;;;;;;;102.97;97.72;;;;;;;;;;5040660;28;20071;-62
2023/09/08 00:18:35;;;;;;;104.88;99.40;;;;;;;;;;5025787;28;20032;-67
2023/09/08 00:21:00;;;;;;;107.60;102.10;;;;;;;;;;5042211;28;20041;-67
2023/09/08 00:23:28;;;;;;;105.85;100.45;;;;;;;;;;5024215;28;20048;-67
2023/09/08 00:25:53;;;;;;;108.43;102.45;;;;;;;;;;5041200;28;20048;-67
2023/09/08 00:28:19;;;;;;;110.93;105.30;;;;;;;;;;5039824;28;20033;-66
2023/09/08 00:30:44;;;;;;;116.30;110.40;;;;;;;;;;5025723;28;20356;-67
2023/09/08 00:33:11;;;;;;;115.18;109.35;;;;;;;;;;5039701;28;20029;-67
2023/09/08 00:35:38;;;;;;;113.88;108.18;;;;;;;;;;5040588;28;20144;-62
2023/09/08 00:38:03;;;;;;;111.88;106.28;;;;;;;;;;5040992;28;20120;-62
2023/09/08 00:40:29;;;;;;;111.88;106.25;;;;;;;;;;5042249;28;20037;-61
2023/09/08 00:42:54;;;;;;;106.93;101.57;;;;;;;;;;5048607;28;20448;-62
2023/09/08 00:45:20;;;;;;;93.25;88.57;;;;;;;;;;5041862;28;20029;-61
2023/09/08 00:47:45;;;;;;;85.15;80.85;;;;;;;;;;5043393;28;20429;-61
2023/09/08 00:50:11;;;;;;;80.35;76.22;;;;;;;;;;5040692;28;20140;-66
2023/09/08 00:52:36;;;;;;;70.43;66.90;;;;;;;;;;5038001;28;20040;-62
2023/09/08 00:55:02;;;;;;;63.33;59.75;;;;;;;;;;5040995;28;20046;-61
2023/09/08 00:57:28;;;;;;;60.30;57.20;;;;;;;;;;5027636;28;20026;-62
2023/09/08 00:59:54;;;;;;;58.65;55.67;;;;;;;;;;5042491;28;20530;-61
2023/09/08 01:02:20;;;;;;;56.22;53.08;;;;;;;;;;5042109;28;20041;-61
2023/09/08 01:04:46;;;;;;;55.63;52.78;;;;;;;;;;5042476;28;20091;-61
2023/09/08 01:07:12;;;;;;;53.13;50.38;;;;;;;;;;5040942;28;20029;-67
2023/09/08 01:09:38;;;;;;;50.40;47.83;;;;;;;;;;5040290;28;20028;-61
2023/09/08 01:12:06;;;;;;;52.28;49.60;;;;;;;;;;5042537;28;20103;-67
2023/09/08 01:14:32;;;;;;;44.20;41.88;;;;;;;;;;5039493;28;20104;-66
2023/09/08 01:16:57;;;;;;;48.75;46.05;;;;;;;;;;5042242;28;20037;-67
2023/09/08 01:19:22;;;;;;;48.67;46.17;;;;;;;;;;5041859;28;20041;-67
2023/09/08 01:22:36;;;;;;;45.45;43.13;;;;;;;;;;5041654;28;20029;-68
2023/09/08 01:25:26;;;;;;;35.22;33.15;;;;;;;;;;5019358;28;20499;-67
2023/09/08 01:27:54;;;;;;;35.73;33.87;;;;;;;;;;5040461;28;20040;-62
2023/09/08 01:30:22;;;;;;;36.30;34.42;;;;;;;;;;5041176;28;20558;-62
2023/09/08 01:32:50;;;;;;;39.35;37.28;;;;;;;;;;5039786;28;20584;-62
2023/09/08 01:35:15;;;;;;;34.38;32.58;;;;;;;;;;5040370;28;20056;-68
2023/09/08 01:37:42;;;;;;;41.85;39.65;;;;;;;;;;5040277;28;20491;-66
2023/09/08 01:40:10;;;;;;;43.60;41.33;;;;;;;;;;5036840;28;20053;-67
2023/09/08 01:42:35;;;;;;;40.35;38.20;;;;;;;;;;5040700;28;20040;-62
2023/09/08 01:45:00;;;;;;;38.72;36.72;;;;;;;;;;5039430;28;20036;-62
2023/09/08 01:47:29;;;;;;;38.35;36.25;;;;;;;;;;5026551;28;20255;-62
2023/09/08 01:49:54;;;;;;;33.13;31.38;;;;;;;;;;5039247;28;20126;-62
2023/09/08 01:52:20;;;;;;;35.00;33.15;;;;;;;;;;5040803;28;20427;-62
2023/09/08 01:54:45;;;;;;;35.83;33.90;;;;;;;;;;5040748;28;20411;-62
2023/09/08 01:57:10;;;;;;;35.63;33.63;;;;;;;;;;5040441;28;20034;-65
2023/09/08 01:59:36;;;;;;;34.95;32.88;;;;;;;;;;5040940;28;20537;-67
2023/09/08 02:02:03;;;;;;;35.83;33.88;;;;;;;;;;5041863;28;20029;-67
2023/09/08 02:04:28;;;;;;;34.28;32.13;;;;;;;;;;5041190;28;20079;-62
2023/09/08 02:06:54;;;;;;;36.20;34.13;;;;;;;;;;5038849;28;20037;-62
2023/09/08 02:09:20;;;;;;;41.05;38.75;;;;;;;;;;5040879;28;20043;-61
2023/09/08 02:11:45;;;;;;;39.40;37.35;;;;;;;;;;5027322;28;20036;-61
2023/09/08 02:14:10;;;;;;;38.05;35.97;;;;;;;;;;5039929;28;20393;-62
2023/09/08 02:16:36;;;;;;;39.55;37.40;;;;;;;;;;5040649;28;20490;-62
2023/09/08 02:19:01;;;;;;;41.08;38.88;;;;;;;;;;5023397;28;20116;-62
2023/09/08 02:21:27;;;;;;;45.97;43.55;;;;;;;;;;5042849;28;20479;-67
2023/09/08 02:23:52;;;;;;;46.47;44.08;;;;;;;;;;5039621;28;20041;-67
2023/09/08 02:26:17;;;;;;;48.75;46.20;;;;;;;;;;5037255;28;20395;-67
2023/09/08 02:28:43;;;;;;;49.83;47.28;;;;;;;;;;5027144;28;20030;-65
2023/09/08 02:31:08;;;;;;;47.75;45.22;;;;;;;;;;5040716;28;20431;-66
2023/09/08 02:33:34;;;;;;;39.92;37.80;;;;;;;;;;5039145;28;20643;-62
2023/09/08 02:36:05;;;;;;;40.92;38.70;;;;;;;;;;5040496;28;20040;-62
2023/09/08 02:38:31;;;;;;;37.00;34.97;;;;;;;;;;5039394;28;20173;-62
2023/09/08 02:40:56;;;;;;;37.80;35.78;;;;;;;;;;5038628;28;20036;-62
2023/09/08 02:43:22;;;;;;;37.35;35.38;;;;;;;;;;5037643;28;20036;-66
2023/09/08 02:45:47;;;;;;;35.08;33.22;;;;;;;;;;5038111;28;20040;-62
2023/09/08 02:48:12;;;;;;;34.70;32.67;;;;;;;;;;5041176;28;20463;-67
2023/09/08 02:50:38;;;;;;;33.03;31.15;;;;;;;;;;5037724;28;20372;-67
2023/09/08 02:53:03;;;;;;;32.90;31.05;;;;;;;;;;5037971;28;20033;-62
2023/09/08 02:55:29;;;;;;;32.17;30.50;;;;;;;;;;5039228;28;20448;-67
2023/09/08 02:57:56;;;;;;;41.35;39.20;;;;;;;;;;5037652;28;20036;-62
2023/09/08 03:00:21;;;;;;;34.88;32.95;;;;;;;;;;5021561;28;20113;-62
2023/09/08 03:02:47;;;;;;;40.28;38.13;;;;;;;;;;5039563;28;20122;-62
2023/09/08 03:05:12;;;;;;;38.47;36.40;;;;;;;;;;5040268;28;20507;-62
2023/09/08 03:07:38;;;;;;;37.80;35.80;;;;;;;;;;5039835;28;20487;-62
2023/09/08 03:10:05;;;;;;;36.72;34.78;;;;;;;;;;5039758;28;20037;-63
2023/09/08 03:12:31;;;;;;;37.72;35.72;;;;;;;;;;5038533;28;20141;-62
2023/09/08 03:14:56;;;;;;;36.80;34.88;;;;;;;;;;5041281;28;20032;-66
2023/09/08 03:17:21;;;;;;;41.13;38.97;;;;;;;;;;5036865;28;20041;-66
2023/09/08 03:19:47;;;;;;;43.60;40.92;;;;;;;;;;5038164;28;20037;-66
2023/09/08 03:22:12;;;;;;;48.05;45.50;;;;;;;;;;5037491;28;20419;-62
2023/09/08 03:24:37;;;;;;;49.95;46.63;;;;;;;;;;5022546;28;20045;-66
2023/09/08 03:27:03;;;;;;;53.80;51.05;;;;;;;;;;5038726;28;20040;-62
2023/09/08 03:29:28;;;;;;;61.00;57.95;;;;;;;;;;5037777;28;20132;-62
2023/09/08 03:31:54;;;;;;;70.38;66.82;;;;;;;;;;5035509;28;20469;-62
2023/09/08 03:34:20;;;;;;;66.15;62.78;;;;;;;;;;5040826;28;20526;-61
2023/09/08 03:36:46;;;;;;;61.70;58.58;;;;;;;;;;5039960;28;20383;-61
2023/09/08 03:39:12;;;;;;;69.25;65.78;;;;;;;;;;5038733;28;20044;-61
2023/09/08 03:41:38;;;;;;;72.10;68.40;;;;;;;;;;5016492;28;20040;-65
2023/09/08 03:44:03;;;;;;;78.30;74.30;;;;;;;;;;5037956;28;20029;-66
2023/09/08 03:46:28;;;;;;;80.10;76.03;;;;;;;;;;5038767;28;20510;-61
2023/09/08 03:48:58;;;;;;;74.75;70.95;;;;;;;;;;5038869;28;20065;-61
2023/09/08 03:51:24;;;;;;;85.35;80.82;;;;;;;;;;5039124;28;20103;-61
2023/09/08 03:53:49;;;;;;;93.45;88.72;;;;;;;;;;5022106;28;20029;-61
2023/09/08 03:56:15;;;;;;;86.82;82.45;;;;;;;;;;5037883;28;20025;-61
2023/09/08 03:58:40;;;;;;;70.93;67.32;;;;;;;;;;5035638;28;20037;-61
2023/09/08 04:01:05;;;;;;;74.93;71.18;;;;;;;;;;5036823;28;20034;-61
2023/09/08 04:03:31;;;;;;;67.10;63.67;;;;;;;;;;5037914;28;20571;-62
2023/09/08 04:05:56;;;;;;;65.90;62.50;;;;;;;;;;5021070;28;20081;-61
2023/09/08 04:08:21;;;;;;;60.65;57.10;;;;;;;;;;5024656;28;20029;-62
2023/09/08 04:10:47;;;;;;;63.25;60.05;;;;;;;;;;5019325;28;20074;-62
2023/09/08 04:13:12;;;;;;;62.63;59.47;;;;;;;;;;5034381;28;20095;-68
2023/09/08 04:15:38;;;;;;;66.00;62.70;;;;;;;;;;5041442;28;20537;-61
2023/09/08 04:18:03;;;;;;;70.30;66.75;;;;;;;;;;5037606;28;20032;-67
2023/09/08 04:20:28;;;;;;;67.53;64.07;;;;;;;;;;5038161;28;20511;-62
2023/09/08 04:22:54;;;;;;;73.75;70.05;;;;;;;;;;5036415;28;20037;-61
2023/09/08 04:28:41;;;;;;;60.17;57.08;;;;;;;;;;5031056;28;20029;-62
2023/09/08 04:31:06;;;;;;;76.03;72.22;;;;;;;;;;5035390;28;20103;-66
2023/09/08 04:33:32;;;;;;;76.95;73.05;;;;;;;;;;5034143;28;20029;-67
2023/09/08 04:35:57;;;;;;;79.70;75.72;;;;;;;;;;5034428;28;20073;-67
2023/09/08 04:38:22;;;;;;;82.68;78.45;;;;;;;;;;5036111;28;20132;-67
2023/09/08 04:40:48;;;;;;;92.22;87.57;;;;;;;;;;5035983;28;20036;-68
2023/09/08 04:43:13;;;;;;;91.85;87.22;;;;;;;;;;5035697;28;20043;-66
2023/09/08 04:45:38;;;;;;;96.40;91.40;;;;;;;;;;5020341;28;20048;-66
2023/09/08 04:48:04;;;;;;;95.53;90.75;;;;;;;;;;5036335;28;20028;-60
2023/09/08 04:50:30;;;;;;;85.72;81.43;;;;;;;;;;5036963;28;20029;-61
2023/09/08 04:52:55;;;;;;;83.63;79.30;;;;;;;;;;5019727;28;20043;-60
2023/09/08 04:55:21;;;;;;;89.13;84.70;;;;;;;;;;5038764;28;20128;-60
2023/09/08 04:57:46;;;;;;;86.95;82.63;;;;;;;;;;5036884;28;20037;-60
2023/09/08 05:00:12;;;;;;;84.32;80.13;;;;;;;;;;5038830;28;20112;-67
2023/09/08 05:02:37;;;;;;;79.15;75.05;;;;;;;;;;5040398;28;20119;-66
2023/09/08 05:05:03;;;;;;;75.53;71.75;;;;;;;;;;5039522;28;20112;-66
2023/09/08 05:07:29;;;;;;;66.82;63.40;;;;;;;;;;5022972;28;20039;-66
2023/09/08 05:09:54;;;;;;;52.28;49.60;;;;;;;;;;5038871;28;20120;-60
2023/09/08 05:12:19;;;;;;;49.88;47.33;;;;;;;;;;5035496;28;20500;-60
2023/09/08 05:14:45;;;;;;;51.35;48.75;;;;;;;;;;5039079;28;20464;-60
2023/09/08 05:17:10;;;;;;;57.40;54.28;;;;;;;;;;5038187;28;20033;-61
2023/09/08 05:19:36;;;;;;;51.63;48.97;;;;;;;;;;5042629;28;20136;-67
2023/09/08 05:22:01;;;;;;;41.17;39.03;;;;;;;;;;5041862;28;20408;-60
2023/09/08 05:24:27;;;;;;;41.90;39.75;;;;;;;;;;5037822;28;20037;-61
2023/09/08 05:26:52;;;;;;;36.13;34.10;;;;;;;;;;5041257;28;20459;-61
2023/09/08 05:29:18;;;;;;;32.80;31.05;;;;;;;;;;5036736;28;20467;-60
2023/09/08 05:31:43;;;;;;;37.55;35.53;;;;;;;;;;5038442;28;20068;-67
2023/09/08 05:34:09;;;;;;;34.30;32.47;;;;;;;;;;5038435;28;20043;-67
2023/09/08 05:36:36;;;;;;;41.25;39.05;;;;;;;;;;5040669;28;20037;-67
2023/09/08 05:39:02;;;;;;;39.05;37.03;;;;;;;;;;5038230;28;20021;-60
2023/09/08 05:41:28;;;;;;;34.05;32.13;;;;;;;;;;5021760;28;20110;-64
2023/09/08 05:43:53;;;;;;;29.02;27.50;;;;;;;;;;5037639;28;20511;-61
2023/09/08 05:46:19;;;;;;;29.02;27.48;;;;;;;;;;5038211;28;20068;-63
2023/09/08 05:48:45;;;;;;;28.17;26.67;;;;;;;;;;5038874;28;20075;-60
2023/09/08 05:51:10;;;;;;;27.83;26.33;;;;;;;;;;5041028;28;20530;-65
2023/09/08 05:53:39;;;;;;;29.98;28.33;;;;;;;;;;5041640;28;20036;-65
2023/09/08 05:56:04;;;;;;;28.98;27.30;;;;;;;;;;5037419;28;20033;-65
2023/09/08 05:58:30;;;;;;;22.25;20.90;;;;;;;;;;5041124;28;20303;-66
2023/09/08 06:00:55;;;;;;;23.52;22.25;;;;;;;;;;5036649;28;20056;-65
2023/09/08 06:03:20;;;;;;;20.77;19.63;;;;;;;;;;5036153;28;20029;-60
2023/09/08 06:05:46;;;;;;;22.83;21.58;;;;;;;;;;5034900;28;20411;-60
2023/09/08 06:08:11;;;;;;;21.63;20.42;;;;;;;;;;5036760;28;20052;-65
2023/09/08 06:10:38;;;;;;;21.42;20.08;;;;;;;;;;5041183;28;20105;-67
2023/09/08 06:13:04;;;;;;;21.63;20.30;;;;;;;;;;5035608;28;20041;-67
2023/09/08 06:15:29;;;;;;;22.05;20.77;;;;;;;;;;5035313;28;20075;-67
2023/09/08 06:17:54;;;;;;;22.27;21.02;;;;;;;;;;5035142;28;20037;-61
2023/09/08 06:20:21;;;;;;;23.73;22.35;;;;;;;;;;5037701;28;20383;-66
2023/09/08 06:22:46;;;;;;;22.85;21.55;;;;;;;;;;5045708;28;20041;-67
2023/09/08 06:25:12;;;;;;;22.17;20.98;;;;;;;;;;5037511;28;20533;-67
2023/09/08 06:27:37;;;;;;;22.52;21.33;;;;;;;;;;5037422;28;20071;-67
2023/09/08 06:30:03;;;;;;;24.92;23.55;;;;;;;;;;5036525;28;20087;-67
2023/09/08 06:32:28;;;;;;;22.98;21.73;;;;;;;;;;5038409;28;20120;-61
2023/09/08 06:34:53;;;;;;;22.73;21.45;;;;;;;;;;5038723;28;20487;-61
2023/09/08 06:37:19;;;;;;;26.05;24.45;;;;;;;;;;5039227;28;20064;-61
2023/09/08 06:39:44;;;;;;;23.10;21.77;;;;;;;;;;5037282;28;20490;-61
2023/09/08 06:42:09;;;;;;;24.73;23.30;;;;;;;;;;5034216;28;20368;-61
2023/09/08 06:44:35;;;;;;;26.75;25.30;;;;;;;;;;5034955;28;20167;-61
2023/09/08 06:47:00;;;;;;;22.00;20.80;;;;;;;;;;5038061;28;20025;-61
2023/09/08 06:49:25;;;;;;;24.75;23.38;;;;;;;;;;5038642;28;20537;-61
2023/09/08 06:51:51;;;;;;;27.50;25.92;;;;;;;;;;5036291;28;20072;-61
2023/09/08 06:54:16;;;;;;;25.60;24.20;;;;;;;;;;5036574;28;20064;-61
2023/09/08 06:56:42;;;;;;;24.17;22.85;;;;;;;;;;5038893;28;20079;-61
2023/09/08 06:59:07;;;;;;;20.52;19.33;;;;;;;;;;5036108;28;20514;-61
2023/09/08 07:01:32;;;;;;;20.20;18.70;;;;;;;;;;5036056;28;20082;-61
2023/09/08 07:03:58;;;;;;;22.42;21.15;;;;;;;;;;5036621;28;20128;-61
2023/09/08 07:06:23;;;;;;;23.00;21.73;;;;;;;;;;5035631;28;20353;-61
2023/09/08 07:08:50;;;;;;;31.10;29.40;;;;;;;;;;5037220;28;20029;-62
2023/09/08 07:11:16;;;;;;;37.33;35.35;;;;;;;;;;5035616;28;20491;-61
2023/09/08 07:13:41;;;;;;;43.58;41.28;;;;;;;;;;5037179;28;20037;-62
2023/09/08 07:16:06;;;;;;;47.80;45.35;;;;;;;;;;5036525;28;20722;-62
2023/09/08 07:18:35;;;;;;;56.67;53.78;;;;;;;;;;5035574;28;20041;-62
2023/09/08 07:21:01;;;;;;;60.85;57.72;;;;;;;;;;5036050;28;20080;-62
2023/09/08 07:23:27;;;;;;;56.97;54.08;;;;;;;;;;5037086;28;20025;-62
2023/09/08 07:25:52;;;;;;;65.50;62.22;;;;;;;;;;5034883;28;20047;-62
2023/09/08 07:28:17;;;;;;;55.90;53.03;;;;;;;;;;5024632;28;20037;-62
2023/09/08 07:30:43;;;;;;;56.65;53.53;;;;;;;;;;5037924;28;20040;-62
2023/09/08 07:33:08;;;;;;;68.53;65.03;;;;;;;;;;5038572;28;20409;-62
2023/09/08 07:35:38;;;;;;;73.50;69.85;;;;;;;;;;5038077;28;20340;-62
2023/09/08 07:38:04;;;;;;;85.82;81.53;;;;;;;;;;5049213;28;20037;-62
2023/09/08 07:40:30;;;;;;;73.53;69.72;;;;;;;;;;5035928;28;20695;-68
2023/09/08 07:42:55;;;;;;;75.25;71.50;;;;;;;;;;5037449;28;20119;-67
2023/09/08 07:45:21;;;;;;;92.15;87.55;;;;;;;;;;5051860;28;20048;-67
2023/09/08 07:47:46;;;;;;;94.57;89.82;;;;;;;;;;5036032;28;20448;-67
2023/09/08 07:50:25;;;;;;;103.53;98.38;;;;;;;;;;5032741;28;20095;-67
2023/09/08 07:52:53;;;;;;;85.33;81.13;;;;;;;;;;5038167;28;20044;-61
2023/09/08 07:55:22;;;;;;;69.88;66.10;;;;;;;;;;5037856;28;20045;-65
2023/09/08 07:57:48;;;;;;;71.93;68.22;;;;;;;;;;5039820;28;20044;-60
2023/09/08 08:00:14;;;;;;;48.47;46.00;;;;;;;;;;5035156;28;20645;-60
2023/09/08 08:02:48;;;;;;;76.57;72.78;;;;;;;;;;5034501;28;20051;-65
2023/09/08 08:05:13;;;;;;;114.50;108.88;;;;;;;;;;5039548;28;20041;-60
2023/09/08 08:07:39;;;;;;;34.58;32.78;;;;;;;;;;5034566;28;20055;-66
2023/09/08 08:10:06;;;;;;;39.92;37.78;;;;;;;;;;5033967;28;20056;-61
2023/09/08 08:12:32;;;;;;;33.83;32.05;;;;;;;;;;5036672;28;20367;-66
2023/09/08 08:14:58;;;;;;;34.63;32.72;;;;;;;;;;5037161;28;20238;-66
2023/09/08 08:17:24;;;;;;;38.30;35.92;;;;;;;;;;5038710;28;20033;-65
2023/09/08 08:19:50;;;;;;;35.72;33.83;;;;;;;;;;5038484;28;20395;-66
2023/09/08 08:22:15;;;;;;;41.75;38.35;;;;;;;;;;5033372;28;20131;-66
2023/09/08 08:24:40;;;;;;;38.85;36.83;;;;;;;;;;5035779;28;20029;-66
2023/09/08 08:27:06;;;;;;;40.15;38.05;;;;;;;;;;5036067;28;20037;-66
2023/09/08 08:29:31;;;;;;;63.95;60.75;;;;;;;;;;5035510;28;20470;-59
2023/09/08 08:31:56;;;;;;;81.88;77.80;;;;;;;;;;5040293;28;20036;-66
2023/09/08 08:34:22;;;;;;;70.35;66.75;;;;;;;;;;5027830;28;20422;-66
2023/09/08 08:36:47;;;;;;;99.00;94.05;;;;;;;;;;5040865;28;20068;-66
2023/09/08 08:39:13;;;;;;;116.25;110.55;;;;;;;;;;5035959;28;20138;-66
2023/09/08 08:41:40;;;;;;;108.13;102.80;;;;;;;;;;5036254;28;20037;-60
2023/09/08 08:44:07;;;;;;;138.05;131.23;;;;;;;;;;5040051;28;20518;-61
2023/09/08 08:46:34;;;;;;;139.43;132.48;;;;;;;;;;5040274;28;20148;-60
2023/09/08 08:49:02;;;;;;;161.10;153.20;;;;;;;;;;5037007;28;20024;-61
2023/09/08 08:51:29;;;;;;;157.57;149.82;;;;;;;;;;5039199;28;20036;-67
2023/09/08 08:53:55;;;;;;;208.93;198.75;;;;;;;;;;5025139;28;20515;-66
2023/09/08 08:56:21;;;;;;;146.88;139.65;;;;;;;;;;5040716;28;20155;-67
2023/09/08 08:58:48;;;;;;;216.57;206.05;;;;;;;;;;5021180;28;20033;-61
2023/09/08 09:01:15;;;;;;;224.75;213.77;;;;;;;;;;5040363;28;20104;-61
2023/09/08 09:03:42;;;;;;;242.57;230.77;;;;;;;;;;5043085;28;20059;-67
2023/09/08 09:06:10;;;;;;;248.32;236.20;;;;;;;;;;5024464;28;20033;-67
2023/09/08 09:08:37;;;;;;;248.73;236.52;;;;;;;;;;5039612;28;20024;-61
2023/09/08 09:11:02;;;;;;;272.70;259.38;;;;;;;;;;5040386;28;20145;-60
2023/09/08 09:13:27;;;;;;;243.38;231.55;;;;;;;;;;5038392;28;20091;-60
2023/09/08 09:15:58;;;;;;;232.77;221.43;;;;;;;;;;5041253;28;20395;-61
2023/09/08 09:18:24;;;;;;;256.58;244.00;;;;;;;;;;5040742;28;20143;-61
2023/09/08 09:20:58;;;;;;;289.50;275.25;;;;;;;;;;5043501;28;20075;-61
2023/09/08 09:23:29;;;;;;;290.55;276.25;;;;;;;;;;5037270;28;20037;-61
2023/09/08 09:25:54;;;;;;;258.52;245.68;;;;;;;;;;5045088;28;20037;-60
2023/09/08 09:28:19;;;;;;;322.60;306.58;;;;;;;;;;5038317;28;20072;-61
2023/09/08 09:30:49;;;;;;;243.57;231.65;;;;;;;;;;5039013;28;20068;-60
2023/09/08 09:33:15;;;;;;;269.37;256.03;;;;;;;;;;5038796;28;20021;-60
2023/09/08 09:35:51;;;;;;;208.82;198.63;;;;;;;;;;5025767;28;20060;-60
2023/09/08 09:38:18;;;;;;;203.07;193.15;;;;;;;;;;5037121;28;20067;-60
2023/09/08 09:40:45;;;;;;;191.63;182.15;;;;;;;;;;5042126;28;20029;-67
2023/09/08 09:43:11;;;;;;;179.80;170.88;;;;;;;;;;5039654;28;20028;-67
2023/09/08 09:45:38;;;;;;;185.45;176.30;;;;;;;;;;5052860;28;20095;-67
2023/09/08 09:48:05;;;;;;;177.07;168.38;;;;;;;;;;5040715;28;20577;-67
2023/09/08 09:50:33;;;;;;;172.25;163.68;;;;;;;;;;5038711;28;20372;-61
2023/09/08 09:53:00;;;;;;;168.75;160.43;;;;;;;;;;5025043;28;20119;-60
2023/09/08 09:55:26;;;;;;;165.95;157.77;;;;;;;;;;5039659;28;20029;-61
2023/09/08 09:57:56;;;;;;;173.10;164.45;;;;;;;;;;5055300;28;20124;-61
2023/09/08 10:00:22;;;;;;;175.13;166.55;;;;;;;;;;5038869;28;20037;-61
2023/09/08 10:02:49;;;;;;;158.80;150.90;;;;;;;;;;5040455;28;20088;-61
2023/09/08 10:05:15;;;;;;;171.18;162.75;;;;;;;;;;5037999;28;20024;-61
2023/09/08 10:07:41;;;;;;;162.20;154.15;;;;;;;;;;5038475;28;20028;-68
2023/09/08 10:10:07;;;;;;;137.00;130.25;;;;;;;;;;5024176;28;20059;-67
2023/09/08 10:12:35;;;;;;;71.03;67.45;;;;;;;;;;5041246;28;20407;-60
2023/09/08 10:15:03;;;;;;;101.82;96.78;;;;;;;;;;5039246;28;20589;-60
2023/09/08 10:17:30;;;;;;;63.10;59.92;;;;;;;;;;5040197;28;20082;-60
2023/09/08 10:19:59;;;;;;;86.13;81.82;;;;;;;;;;5038359;28;20075;-60
2023/09/08 10:22:30;;;;;;;82.95;78.75;;;;;;;;;;5038535;28;20110;-60
2023/09/08 10:24:59;;;;;;;70.20;66.68;;;;;;;;;;5034583;28;20034;-61
2023/09/08 10:27:26;;;;;;;76.00;72.15;;;;;;;;;;5019359;28;20041;-61
2023/09/08 10:29:52;;;;;;;48.08;45.58;;;;;;;;;;5038657;28;20037;-61
2023/09/08 10:32:19;;;;;;;69.93;66.38;;;;;;;;;;5053489;28;20104;-61
2023/09/08 10:34:45;;;;;;;53.05;50.38;;;;;;;;;;5037746;28;20051;-60
2023/09/08 10:37:21;;;;;;;39.97;37.80;;;;;;;;;;5035272;28;20029;-60
2023/09/08 10:39:47;;;;;;;24.67;23.27;;;;;;;;;;5023990;28;20032;-60
2023/09/08 10:42:19;;;;;;;25.25;23.90;;;;;;;;;;5040369;28;20044;-61
2023/09/08 10:44:47;;;;;;;24.70;23.35;;;;;;;;;;5039018;28;20054;-61
2023/09/08 10:47:12;;;;;;;32.00;30.33;;;;;;;;;;5037398;28;20487;-62
2023/09/08 10:49:38;;;;;;;27.55;26.05;;;;;;;;;;5040383;28;20099;-60
2023/09/08 10:52:12;;;;;;;28.70;27.20;;;;;;;;;;5051911;28;20024;-61
2023/09/08 10:54:42;;;;;;;29.90;28.30;;;;;;;;;;5022688;28;20110;-60
2023/09/08 10:57:20;;;;;;;37.90;35.90;;;;;;;;;;5039354;28;20131;-61
2023/09/08 10:59:56;;;;;;;26.25;24.85;;;;;;;;;;5024936;28;20068;-61
2023/09/08 11:02:54;;;;;;;24.67;23.38;;;;;;;;;;5037866;28;20351;-61
2023/09/08 11:05:21;;;;;;;25.02;23.60;;;;;;;;;;5037816;28;20069;-60
2023/09/08 11:07:49;;;;;;;24.75;23.45;;;;;;;;;;5036709;28;20026;-61
2023/09/08 11:10:14;;;;;;;23.52;22.23;;;;;;;;;;5041364;28;20033;-61
2023/09/08 11:12:40;;;;;;;26.05;24.58;;;;;;;;;;5037614;28;20840;-61
2023/09/08 11:15:08;;;;;;;25.40;24.00;;;;;;;;;;5053079;28;20060;-61
2023/09/08 11:17:39;;;;;;;24.65;23.35;;;;;;;;;;5040499;28;20052;-61
2023/09/08 11:20:09;;;;;;;25.20;23.80;;;;;;;;;;5038603;28;20376;-61
2023/09/08 11:22:37;;;;;;;23.15;21.85;;;;;;;;;;5035823;28;20030;-61
2023/09/08 11:25:05;;;;;;;23.80;22.50;;;;;;;;;;5037223;28;20064;-61
2023/09/08 11:27:32;;;;;;;25.10;23.63;;;;;;;;;;5050895;28;20029;-61
2023/09/08 11:29:57;;;;;;;22.08;20.88;;;;;;;;;;5037390;28;20036;-60
2023/09/08 11:32:24;;;;;;;24.65;23.23;;;;;;;;;;5037276;28;20033;-61
2023/09/08 11:34:49;;;;;;;24.30;22.92;;;;;;;;;;5036058;28;20029;-60
2023/09/08 11:37:18;;;;;;;25.50;24.10;;;;;;;;;;5037517;28;20467;-60
2023/09/08 11:39:45;;;;;;;25.35;23.95;;;;;;;;;;5033735;28;20033;-60
2023/09/08 11:42:13;;;;;;;27.05;25.65;;;;;;;;;;5037951;28;20715;-59
2023/09/08 11:44:39;;;;;;;27.10;25.60;;;;;;;;;;5034557;28;20040;-69
2023/09/08 11:47:09;;;;;;;28.60;27.10;;;;;;;;;;5036658;28;20123;-61
2023/09/08 11:49:40;;;;;;;27.80;26.33;;;;;;;;;;5036790;28;20037;-61
2023/09/08 11:52:06;;;;;;;25.95;24.58;;;;;;;;;;5037399;28;20045;-61
2023/09/08 11:54:33;;;;;;;25.08;23.73;;;;;;;;;;5033278;28;20223;-61
2023/09/08 11:57:00;;;;;;;33.28;31.55;;;;;;;;;;5038941;28;20048;-60
2023/09/08 11:59:28;;;;;;;41.08;38.95;;;;;;;;;;5037265;28;20612;-69
2023/09/08 12:01:53;;;;;;;43.40;41.13;;;;;;;;;;5027082;28;20051;-61
2023/09/08 12:04:20;;;;;;;34.20;32.40;;;;;;;;;;5035194;28;20368;-61
2023/09/08 12:06:46;;;;;;;32.70;30.95;;;;;;;;;;5035727;28;20049;-61
2023/09/08 12:09:12;;;;;;;44.55;42.25;;;;;;;;;;5038968;28;20080;-61
2023/09/08 12:11:42;;;;;;;40.92;38.83;;;;;;;;;;5021298;28;20069;-62
2023/09/08 12:14:10;;;;;;;60.88;57.83;;;;;;;;;;5038176;28;20210;-62
2023/09/08 12:16:36;;;;;;;54.97;51.75;;;;;;;;;;5037932;28;20048;-61
2023/09/08 12:19:01;;;;;;;105.60;100.40;;;;;;;;;;5034020;28;20037;-61
2023/09/08 12:21:27;;;;;;;71.72;68.13;;;;;;;;;;5039101;28;20029;-61
2023/09/08 12:23:53;;;;;;;90.90;86.40;;;;;;;;;;5024733;28;20095;-62
2023/09/08 12:26:20;;;;;;;97.32;92.50;;;;;;;;;;5033858;28;20597;-63
2023/09/08 12:28:46;;;;;;;94.53;89.80;;;;;;;;;;5036944;28;20043;-62
2023/09/08 12:31:16;;;;;;;100.85;95.82;;;;;;;;;;5039245;28;20028;-70
2023/09/08 12:33:43;;;;;;;106.32;101.07;;;;;;;;;;5035690;28;20402;-70
2023/09/08 12:36:15;;;;;;;96.57;91.72;;;;;;;;;;5036968;28;20052;-70
2023/09/08 12:38:41;;;;;;;85.43;81.10;;;;;;;;;;5035741;28;20033;-70
2023/09/08 12:41:06;;;;;;;109.97;104.50;;;;;;;;;;5035278;28;20036;-70
2023/09/08 12:43:32;;;;;;;113.95;108.35;;;;;;;;;;5035030;28;20029;-70
2023/09/08 12:45:57;;;;;;;123.25;117.13;;;;;;;;;;5036413;28;20188;-62
2023/09/08 12:48:23;;;;;;;101.05;96.05;;;;;;;;;;5035756;28;20354;-62
2023/09/08 12:50:48;;;;;;;114.35;108.57;;;;;;;;;;5034781;28;20037;-62
2023/09/08 12:53:14;;;;;;;101.35;96.32;;;;;;;;;;5035514;28;20189;-62
2023/09/08 12:55:39;;;;;;;110.40;104.55;;;;;;;;;;5036309;28;20047;-62
2023/09/08 12:58:05;;;;;;;58.97;56.00;;;;;;;;;;5033529;28;20033;-70
2023/09/08 13:00:30;;;;;;;101.97;96.88;;;;;;;;;;5048761;28;20411;-69
2023/09/08 13:02:56;;;;;;;113.40;107.72;;;;;;;;;;5036923;28;20120;-61
2023/09/08 13:05:21;;;;;;;112.72;107.15;;;;;;;;;;5038027;28;20040;-62
2023/09/08 13:07:46;;;;;;;94.07;89.40;;;;;;;;;;5037447;28;20356;-69
2023/09/08 13:10:12;;;;;;;109.72;104.22;;;;;;;;;;5032809;28;20030;-69
2023/09/08 13:12:37;;;;;;;100.15;95.18;;;;;;;;;;5022380;28;20041;-61
2023/09/08 13:15:03;;;;;;;97.68;92.88;;;;;;;;;;5034197;28;20136;-61
2023/09/08 13:17:29;;;;;;;100.70;95.68;;;;;;;;;;5037875;28;20667;-61
2023/09/08 13:19:54;;;;;;;98.97;94.05;;;;;;;;;;5041392;28;20045;-61
2023/09/08 13:22:20;;;;;;;113.00;107.40;;;;;;;;;;5021092;28;20056;-61
2023/09/08 13:24:45;;;;;;;100.35;95.13;;;;;;;;;;5024374;28;20375;-69
2023/09/08 13:27:11;;;;;;;87.25;82.95;;;;;;;;;;5035389;28;20025;-69
2023/09/08 13:29:37;;;;;;;88.35;83.85;;;;;;;;;;5039754;28;20033;-61
2023/09/08 13:32:04;;;;;;;103.57;98.43;;;;;;;;;;5040985;28;20128;-62
2023/09/08 13:34:29;;;;;;;82.63;78.50;;;;;;;;;;5039381;28;20091;-61
2023/09/08 13:36:55;;;;;;;91.13;86.63;;;;;;;;;;5042279;28;20504;-62
2023/09/08 13:39:20;;;;;;;95.65;90.88;;;;;;;;;;5037190;28;20147;-62
2023/09/08 13:41:52;;;;;;;88.35;83.95;;;;;;;;;;5038357;28;20109;-69
2023/09/08 13:44:23;;;;;;;80.38;76.32;;;;;;;;;;5039859;28;20043;-68
2023/09/08 13:46:53;;;;;;;82.38;78.20;;;;;;;;;;5039876;28;20036;-62
2023/09/08 13:49:19;;;;;;;75.00;71.28;;;;;;;;;;5040147;28;20064;-69
2023/09/08 13:51:45;;;;;;;79.82;75.82;;;;;;;;;;5035591;28;20039;-69
2023/09/08 13:54:12;;;;;;;93.18;88.55;;;;;;;;;;5040508;28;20029;-68
2023/09/08 13:56:39;;;;;;;77.90;74.03;;;;;;;;;;5039535;28;20453;-69
2023/09/08 13:59:05;;;;;;;71.85;68.28;;;;;;;;;;5039742;28;20064;-69
2023/09/08 14:01:31;;;;;;;73.53;69.85;;;;;;;;;;5038501;28;20041;-69
2023/09/08 14:03:57;;;;;;;68.53;65.13;;;;;;;;;;5041571;28;20467;-68
2023/09/08 14:06:23;;;;;;;65.28;61.97;;;;;;;;;;5024683;28;20040;-69
2023/09/08 14:08:49;;;;;;;75.22;71.50;;;;;;;;;;5039942;28;20040;-61
2023/09/08 14:11:14;;;;;;;61.78;58.67;;;;;;;;;;5024941;28;20021;-69